Strona główna
METAR-TAF:

METAR-TAF

Lotnisko :

Bradford, Pensylwania, Stany Zjednoczone

Szerokość geograficzna: 41-47-55N, Długość geograficzna: 078-38-09W, wysokość: 653 m

Aktualna obserwacja pogody

Raport powstał 45 minut temu, godzina 08:53 UTC
Wiatr 3 kt od północny zachód
Temperatura 9°C
Wilgotność 87%
Ciśnienie 1017 hPa
Widzialność: 16.1 km
bezchmurnie

METAR: KBFD 070853Z AUTO 32003KT 10SM CLR 09/07 A3002 RMK AO2 SLP158 T00890072 53003

czas: 05:38 (09:38 UTC)

Prognoza

Raport powstał 25 minut temu, godzina 09:13 UTC
Prognoza ważna od 07 godzina 09 UTC do 08 godzina 06 UTC
Wiatr 5 kt od północny zachód
Widzialność: 10 km
Rozproszone chmury na wysokości 4000 ft
Od 07 godzina 1200 UTC
Wiatr 10 kt od północno-północny zachód w porywach dochodzący do 20 kt
Widzialność: 10 km
Rozproszone chmury na wysokości 4000 ft
Od 08 godzina 0100 UTC
Wiatr 5 kt od północ
Widzialność: 10 km
bezchmurnie

TAF: KBFD 070913Z 0709/0806 32005KT P6SM SCT040 FM071200 34010G20KT P6SM SCT040 FM080100 35005KT P6SM SKC

Obserwacja i prognoza pogody dla ponad 4000 lotnisk (raport METAR i TAF).

Dostępne stacje oznaczono żółtymi i czerwonymi punktami na mapie.

Najedź kursorem aby zobaczyć nazwę stacji.

Kliknij aby zobaczyć obserwacje i prognozy pogody.

Aby zmienić mapę: kliknij na zielony przycisk z czarnym krzyżykiem, aby powiększyć; na zielony przycisk z myślnikiem, aby pomniejszyć; na zielone strzałki, aby przejść do map sąsiednich.


METAR-TAF: